Time;durP1;ratioP1;P1;durP2;ratioP2;P2;SDS_P1;SDS_P2;PMS_P1;PMS_P2;Temp;Humidity;BMP_temperature;BMP_pressure;BME280_temperature;BME280_humidity;BME280_pressure;Samples;Min_cycle;Max_cycle;Signal;HPM_P1;HPM_P2
2023/09/03 00:01:32;;;;;;;231.13;91.43;;;;;;;;;;5074014;28;20441;-46
2023/09/03 00:03:58;;;;;;;231.77;92.53;;;;;;;;;;5074124;28;20437;-47
2023/09/03 00:06:24;;;;;;;230.97;93.17;;;;;;;;;;5074247;28;20405;-46
2023/09/03 00:08:50;;;;;;;232.77;93.47;;;;;;;;;;5074252;28;20417;-46
2023/09/03 00:11:16;;;;;;;230.07;90.57;;;;;;;;;;5074040;28;20403;-46
2023/09/03 00:13:43;;;;;;;231.93;92.37;;;;;;;;;;5073930;28;20933;-46
2023/09/03 00:16:09;;;;;;;232.10;93.50;;;;;;;;;;5073860;28;20767;-46
2023/09/03 00:18:37;;;;;;;234.20;95.67;;;;;;;;;;5073989;28;20408;-47
2023/09/03 00:21:03;;;;;;;229.70;92.30;;;;;;;;;;5073685;28;20459;-46
2023/09/03 00:23:30;;;;;;;230.87;91.50;;;;;;;;;;5073789;28;20928;-46
2023/09/03 00:25:56;;;;;;;231.83;94.40;;;;;;;;;;5073934;28;20938;-46
2023/09/03 00:28:23;;;;;;;234.93;94.67;;;;;;;;;;5073659;28;20439;-47
2023/09/03 00:31:04;;;;;;;234.63;95.47;;;;;;;;;;5073508;28;20411;-46
2023/09/03 00:33:31;;;;;;;233.17;93.43;;;;;;;;;;5073532;28;20424;-47
2023/09/03 00:35:57;;;;;;;233.53;92.27;;;;;;;;;;5073570;28;20408;-46
2023/09/03 00:38:23;;;;;;;235.90;96.67;;;;;;;;;;5073601;28;20404;-46
2023/09/03 00:40:49;;;;;;;230.17;91.67;;;;;;;;;;5073275;28;20444;-47
2023/09/03 00:43:15;;;;;;;232.53;93.20;;;;;;;;;;5073248;28;20453;-47
2023/09/03 00:45:42;;;;;;;233.20;91.47;;;;;;;;;;5073445;28;20956;-46
2023/09/03 00:48:09;;;;;;;234.07;92.50;;;;;;;;;;5073395;28;20392;-46
2023/09/03 00:50:36;;;;;;;234.27;93.10;;;;;;;;;;5073024;28;20771;-46
2023/09/03 00:53:03;;;;;;;232.77;91.23;;;;;;;;;;5073030;28;20833;-46
2023/09/03 00:55:29;;;;;;;235.20;90.87;;;;;;;;;;5079436;28;20423;-46
2023/09/03 00:57:55;;;;;;;233.40;91.90;;;;;;;;;;5072929;28;20416;-46
2023/09/03 01:00:21;;;;;;;234.77;92.37;;;;;;;;;;5072535;28;20873;-46
2023/09/03 01:02:48;;;;;;;237.33;92.37;;;;;;;;;;5072050;28;20500;-46
2023/09/03 01:05:14;;;;;;;231.13;91.80;;;;;;;;;;5072452;28;20417;-46
2023/09/03 01:07:40;;;;;;;230.73;88.43;;;;;;;;;;5072715;28;20502;-46
2023/09/03 01:10:07;;;;;;;232.97;90.13;;;;;;;;;;5072371;28;20420;-47
2023/09/03 01:12:38;;;;;;;231.87;89.10;;;;;;;;;;5071982;28;20935;-46
2023/09/03 01:15:07;;;;;;;232.90;91.30;;;;;;;;;;5072632;28;20416;-46
2023/09/03 01:17:46;;;;;;;233.60;90.37;;;;;;;;;;5072609;28;20424;-46
2023/09/03 01:20:16;;;;;;;232.57;90.87;;;;;;;;;;5072300;28;20550;-46
2023/09/03 01:22:54;;;;;;;235.53;92.43;;;;;;;;;;5064453;28;20467;-47
2023/09/03 01:25:39;;;;;;;234.90;92.47;;;;;;;;;;5072325;28;20405;-47
2023/09/03 01:28:23;;;;;;;231.43;87.67;;;;;;;;;;5072775;28;20392;-46
2023/09/03 01:30:49;;;;;;;232.77;90.83;;;;;;;;;;5065085;28;20470;-46
2023/09/03 01:33:17;;;;;;;232.73;92.73;;;;;;;;;;5072143;28;20421;-46
2023/09/03 01:35:43;;;;;;;229.57;88.27;;;;;;;;;;5072399;28;20407;-46
2023/09/03 01:38:09;;;;;;;229.13;90.03;;;;;;;;;;5072285;28;20405;-46
2023/09/03 01:40:35;;;;;;;231.67;88.73;;;;;;;;;;5071750;28;21145;-46
2023/09/03 01:43:01;;;;;;;232.17;92.17;;;;;;;;;;5072059;28;20423;-46
2023/09/03 01:45:32;;;;;;;231.60;90.60;;;;;;;;;;5071909;28;20946;-45
2023/09/03 01:48:10;;;;;;;230.07;88.83;;;;;;;;;;5072301;28;20554;-46
2023/09/03 01:50:43;;;;;;;228.70;88.90;;;;;;;;;;5071610;28;20489;-47
2023/09/03 01:53:20;;;;;;;231.17;91.67;;;;;;;;;;5072049;28;20519;-46
2023/09/03 01:55:52;;;;;;;230.70;92.00;;;;;;;;;;5071877;28;20967;-46
2023/09/03 01:58:19;;;;;;;230.57;89.90;;;;;;;;;;5071869;28;20439;-47
2023/09/03 02:00:46;;;;;;;230.57;89.63;;;;;;;;;;5071603;28;20470;-46
2023/09/03 02:03:13;;;;;;;229.10;88.17;;;;;;;;;;5072032;28;20520;-46
2023/09/03 02:05:39;;;;;;;230.80;89.57;;;;;;;;;;5071689;28;20457;-46
2023/09/03 02:08:05;;;;;;;229.17;88.70;;;;;;;;;;5071782;28;20897;-46
2023/09/03 02:10:31;;;;;;;231.77;91.90;;;;;;;;;;5071249;28;20431;-46
2023/09/03 02:12:57;;;;;;;233.27;90.53;;;;;;;;;;5071719;28;20501;-47
2023/09/03 02:15:22;;;;;;;227.97;88.47;;;;;;;;;;5071729;28;20422;-47
2023/09/03 02:17:48;;;;;;;230.10;91.23;;;;;;;;;;5071786;28;20408;-46
2023/09/03 02:20:15;;;;;;;230.63;89.50;;;;;;;;;;5071304;28;20466;-47
2023/09/03 02:22:41;;;;;;;229.00;88.47;;;;;;;;;;5070833;28;20411;-46
2023/09/03 02:25:07;;;;;;;231.07;90.23;;;;;;;;;;5071741;28;20417;-47
2023/09/03 02:27:33;;;;;;;229.77;91.43;;;;;;;;;;5071530;28;20888;-47
2023/09/03 02:29:59;;;;;;;230.37;89.97;;;;;;;;;;5071382;28;20450;-46
2023/09/03 02:32:25;;;;;;;230.93;89.70;;;;;;;;;;5071449;28;20438;-46
2023/09/03 02:34:51;;;;;;;229.30;88.80;;;;;;;;;;5071339;28;20957;-46
2023/09/03 02:37:18;;;;;;;235.97;93.73;;;;;;;;;;5071480;28;20416;-46
2023/09/03 02:39:44;;;;;;;233.17;91.17;;;;;;;;;;5070983;28;20465;-46
2023/09/03 02:42:10;;;;;;;230.73;91.20;;;;;;;;;;5071680;28;20404;-46
2023/09/03 02:44:36;;;;;;;232.93;93.67;;;;;;;;;;5071179;28;20440;-46
2023/09/03 02:47:02;;;;;;;228.17;87.33;;;;;;;;;;5071941;28;20405;-46
2023/09/03 02:49:27;;;;;;;232.17;90.83;;;;;;;;;;5071528;28;20589;-46
2023/09/03 02:51:53;;;;;;;231.73;90.53;;;;;;;;;;5070648;28;20422;-46
2023/09/03 02:54:19;;;;;;;232.53;91.37;;;;;;;;;;5071001;28;20801;-46
2023/09/03 02:56:45;;;;;;;231.20;89.07;;;;;;;;;;5071570;28;20420;-46
2023/09/03 02:59:11;;;;;;;229.47;89.70;;;;;;;;;;5071355;28;20430;-45
2023/09/03 03:01:37;;;;;;;231.40;89.30;;;;;;;;;;5070898;28;20950;-47
2023/09/03 03:04:04;;;;;;;229.93;88.10;;;;;;;;;;5071339;28;20429;-46
2023/09/03 03:06:29;;;;;;;228.57;87.87;;;;;;;;;;5071410;28;20406;-46
2023/09/03 03:08:55;;;;;;;229.13;87.33;;;;;;;;;;5071459;28;20417;-46
2023/09/03 03:11:23;;;;;;;229.60;89.23;;;;;;;;;;5071070;28;20407;-46
2023/09/03 03:13:53;;;;;;;230.60;90.87;;;;;;;;;;5071189;28;20530;-47
2023/09/03 03:16:18;;;;;;;229.37;88.57;;;;;;;;;;5071281;28;20870;-46
2023/09/03 03:18:45;;;;;;;229.27;89.80;;;;;;;;;;5071305;28;20451;-46
2023/09/03 03:21:14;;;;;;;228.60;88.67;;;;;;;;;;5070988;28;20816;-46
2023/09/03 03:23:40;;;;;;;231.13;90.73;;;;;;;;;;5070995;28;20611;-46
2023/09/03 03:26:07;;;;;;;227.87;87.57;;;;;;;;;;5071322;28;20432;-46
2023/09/03 03:28:33;;;;;;;229.37;89.20;;;;;;;;;;5071251;28;20413;-46
2023/09/03 03:31:19;;;;;;;229.80;89.17;;;;;;;;;;5070991;28;20771;-46
2023/09/03 03:33:46;;;;;;;227.37;86.40;;;;;;;;;;5070943;28;20425;-46
2023/09/03 03:36:13;;;;;;;229.07;87.77;;;;;;;;;;5074586;28;20407;-46
2023/09/03 03:38:40;;;;;;;227.80;85.67;;;;;;;;;;5074647;28;20414;-46
2023/09/03 03:41:09;;;;;;;228.13;87.80;;;;;;;;;;5074656;28;20462;-46
2023/09/03 03:43:38;;;;;;;231.33;90.40;;;;;;;;;;5074505;28;20417;-46
2023/09/03 03:46:06;;;;;;;228.03;88.13;;;;;;;;;;5074739;28;20429;-46
2023/09/03 03:48:32;;;;;;;227.67;86.63;;;;;;;;;;5074561;28;20488;-46
2023/09/03 03:50:58;;;;;;;229.20;88.67;;;;;;;;;;5074101;28;20426;-46
2023/09/03 03:53:24;;;;;;;230.07;89.70;;;;;;;;;;5074464;28;20448;-46
2023/09/03 03:56:02;;;;;;;230.50;91.03;;;;;;;;;;5074507;28;20405;-46
2023/09/03 03:58:29;;;;;;;229.10;87.33;;;;;;;;;;5074389;28;20408;-47
2023/09/03 04:00:55;;;;;;;228.57;88.33;;;;;;;;;;5074153;28;20454;-46
2023/09/03 04:03:24;;;;;;;228.60;86.43;;;;;;;;;;5074108;28;20787;-47
2023/09/03 04:06:00;;;;;;;230.87;90.50;;;;;;;;;;5074241;28;20398;-46
2023/09/03 04:08:27;;;;;;;228.40;88.17;;;;;;;;;;5074208;28;20388;-46
2023/09/03 04:10:57;;;;;;;227.27;88.30;;;;;;;;;;5073882;28;20404;-46
2023/09/03 04:13:23;;;;;;;226.87;86.03;;;;;;;;;;5074026;28;20783;-46
2023/09/03 04:15:49;;;;;;;229.10;88.57;;;;;;;;;;5073852;28;20454;-46
2023/09/03 04:18:15;;;;;;;228.67;86.20;;;;;;;;;;5073971;28;20406;-46
2023/09/03 04:20:41;;;;;;;229.47;88.10;;;;;;;;;;5073624;28;20456;-46
2023/09/03 04:23:07;;;;;;;228.77;88.03;;;;;;;;;;5074029;28;20418;-46
2023/09/03 04:25:33;;;;;;;227.77;87.47;;;;;;;;;;5073874;28;20885;-46
2023/09/03 04:27:59;;;;;;;227.73;86.20;;;;;;;;;;5073908;28;20413;-46
2023/09/03 04:30:25;;;;;;;228.20;87.47;;;;;;;;;;5073439;28;20405;-47
2023/09/03 04:32:51;;;;;;;230.10;89.73;;;;;;;;;;5073701;28;20986;-46
2023/09/03 04:35:17;;;;;;;228.27;88.83;;;;;;;;;;5073600;28;20918;-46
2023/09/03 04:37:43;;;;;;;228.00;88.07;;;;;;;;;;5073698;28;20496;-46
2023/09/03 04:40:09;;;;;;;227.60;86.93;;;;;;;;;;5073390;28;20454;-46
2023/09/03 04:42:35;;;;;;;226.90;85.97;;;;;;;;;;5073976;28;20958;-45
2023/09/03 04:45:01;;;;;;;228.57;87.93;;;;;;;;;;5073419;28;20436;-45
2023/09/03 04:47:29;;;;;;;229.03;89.43;;;;;;;;;;5072595;28;20910;-45
2023/09/03 04:49:55;;;;;;;235.97;94.47;;;;;;;;;;5073250;28;20436;-47
2023/09/03 04:52:21;;;;;;;229.23;89.07;;;;;;;;;;5083355;28;20471;-47
2023/09/03 04:54:47;;;;;;;228.57;88.47;;;;;;;;;;5093422;28;20432;-46
2023/09/03 04:57:13;;;;;;;229.17;90.27;;;;;;;;;;5093512;28;20408;-46
2023/09/03 04:59:39;;;;;;;228.57;88.60;;;;;;;;;;5093165;28;20486;-46
2023/09/03 05:02:05;;;;;;;226.93;88.97;;;;;;;;;;5093055;28;20442;-48
2023/09/03 05:04:31;;;;;;;229.13;89.37;;;;;;;;;;5093261;28;20420;-46
2023/09/03 05:06:57;;;;;;;227.17;88.13;;;;;;;;;;5093304;28;20831;-46
2023/09/03 05:09:23;;;;;;;230.30;89.30;;;;;;;;;;5093169;28;20389;-46
2023/09/03 05:11:49;;;;;;;230.37;89.77;;;;;;;;;;5092996;28;20395;-46
2023/09/03 05:14:15;;;;;;;231.47;92.57;;;;;;;;;;5093019;28;20421;-46
2023/09/03 05:16:41;;;;;;;227.10;89.60;;;;;;;;;;5093186;28;20397;-46
2023/09/03 05:19:07;;;;;;;229.37;89.13;;;;;;;;;;5093106;28;20398;-46
2023/09/03 05:21:33;;;;;;;228.97;89.87;;;;;;;;;;5092729;28;20453;-46
2023/09/03 05:23:59;;;;;;;229.07;89.03;;;;;;;;;;5071766;28;20451;-46
2023/09/03 05:26:25;;;;;;;229.67;92.27;;;;;;;;;;5072937;28;20475;-46
2023/09/03 05:28:51;;;;;;;230.37;92.73;;;;;;;;;;5074934;28;20414;-47
2023/09/03 05:31:17;;;;;;;228.53;89.83;;;;;;;;;;5072139;28;20783;-47
2023/09/03 05:33:43;;;;;;;232.60;94.37;;;;;;;;;;5072116;28;20503;-46
2023/09/03 05:36:09;;;;;;;231.67;94.40;;;;;;;;;;5072251;28;20409;-46
2023/09/03 05:38:35;;;;;;;234.47;98.63;;;;;;;;;;5072758;28;20414;-47
2023/09/03 05:41:02;;;;;;;232.47;97.43;;;;;;;;;;5071841;28;20474;-46
2023/09/03 05:43:28;;;;;;;232.87;95.70;;;;;;;;;;5072001;28;20522;-46
2023/09/03 05:45:54;;;;;;;231.53;94.10;;;;;;;;;;5072060;28;20453;-46
2023/09/03 05:48:20;;;;;;;227.87;90.13;;;;;;;;;;5072052;28;20407;-48
2023/09/03 05:50:46;;;;;;;230.93;93.43;;;;;;;;;;5071595;28;20789;-47
2023/09/03 05:53:12;;;;;;;231.53;96.57;;;;;;;;;;5071806;28;20932;-46
2023/09/03 05:55:39;;;;;;;234.17;99.87;;;;;;;;;;5071765;28;20884;-47
2023/09/03 05:58:06;;;;;;;226.83;90.87;;;;;;;;;;5071776;28;20406;-46
2023/09/03 06:00:32;;;;;;;229.97;92.30;;;;;;;;;;5071562;28;20465;-46
2023/09/03 06:02:58;;;;;;;229.47;94.57;;;;;;;;;;5071789;28;20430;-46
2023/09/03 06:05:27;;;;;;;231.80;94.97;;;;;;;;;;5071606;28;20419;-46
2023/09/03 06:07:54;;;;;;;236.70;97.37;;;;;;;;;;5072002;28;20446;-47
2023/09/03 06:10:21;;;;;;;236.60;97.37;;;;;;;;;;5071545;28;20494;-47
2023/09/03 06:12:48;;;;;;;234.43;96.23;;;;;;;;;;5071727;28;20418;-46
2023/09/03 06:15:14;;;;;;;235.87;99.80;;;;;;;;;;5071685;28;20965;-46
2023/09/03 06:17:40;;;;;;;234.23;96.37;;;;;;;;;;5076910;28;20406;-46
2023/09/03 06:20:06;;;;;;;234.80;95.97;;;;;;;;;;5071158;28;20456;-46
2023/09/03 06:22:32;;;;;;;239.43;101.77;;;;;;;;;;5071554;28;20420;-47
2023/09/03 06:24:58;;;;;;;238.97;102.93;;;;;;;;;;5071545;28;20414;-46
2023/09/03 06:27:24;;;;;;;236.97;99.70;;;;;;;;;;5071544;28;20430;-46
2023/09/03 06:29:50;;;;;;;239.87;102.13;;;;;;;;;;5071371;28;20426;-46
2023/09/03 06:32:16;;;;;;;235.30;98.97;;;;;;;;;;5071594;28;20922;-47
2023/09/03 06:34:42;;;;;;;234.53;96.90;;;;;;;;;;5071269;28;20458;-47
2023/09/03 06:37:08;;;;;;;236.10;99.43;;;;;;;;;;5071477;28;20962;-46
2023/09/03 06:39:34;;;;;;;235.43;98.23;;;;;;;;;;5071339;28;20900;-46
2023/09/03 06:42:00;;;;;;;240.77;105.37;;;;;;;;;;5071281;28;20498;-46
2023/09/03 06:44:26;;;;;;;237.77;102.43;;;;;;;;;;5071235;28;20467;-46
2023/09/03 06:46:51;;;;;;;240.13;103.73;;;;;;;;;;5071392;28;20781;-46
2023/09/03 06:49:17;;;;;;;239.87;104.93;;;;;;;;;;5071141;28;20416;-46
2023/09/03 06:51:43;;;;;;;238.07;102.07;;;;;;;;;;5071910;28;20459;-47
2023/09/03 06:54:09;;;;;;;238.70;103.33;;;;;;;;;;5071175;28;20424;-46
2023/09/03 06:56:35;;;;;;;241.47;103.17;;;;;;;;;;5071279;28;20405;-47
2023/09/03 06:59:01;;;;;;;241.70;106.53;;;;;;;;;;5071288;28;20854;-46
2023/09/03 07:01:27;;;;;;;242.73;105.57;;;;;;;;;;5070886;28;20863;-47
2023/09/03 07:03:53;;;;;;;239.57;101.13;;;;;;;;;;5070896;28;20793;-47
2023/09/03 07:06:20;;;;;;;240.10;103.27;;;;;;;;;;5071275;28;20429;-47
2023/09/03 07:08:46;;;;;;;239.37;104.07;;;;;;;;;;5071339;28;20737;-46
2023/09/03 07:11:12;;;;;;;239.13;101.80;;;;;;;;;;5074773;28;20400;-46
2023/09/03 07:13:38;;;;;;;244.23;109.47;;;;;;;;;;5074860;28;20424;-47
2023/09/03 07:16:05;;;;;;;240.93;107.57;;;;;;;;;;5074983;28;20407;-46
2023/09/03 07:18:30;;;;;;;243.77;109.03;;;;;;;;;;5074690;28;20424;-47
2023/09/03 07:21:04;;;;;;;237.17;100.07;;;;;;;;;;5074531;28;20547;-47
2023/09/03 07:23:30;;;;;;;242.10;106.97;;;;;;;;;;5074347;28;20526;-47
2023/09/03 07:26:01;;;;;;;243.00;108.13;;;;;;;;;;5074903;28;20448;-46
2023/09/03 07:28:27;;;;;;;242.40;107.00;;;;;;;;;;5072183;28;20424;-46
2023/09/03 07:30:53;;;;;;;241.37;103.33;;;;;;;;;;5074241;28;20417;-47
2023/09/03 07:33:18;;;;;;;241.90;106.97;;;;;;;;;;5074451;28;20543;-46
2023/09/03 07:35:44;;;;;;;250.43;113.03;;;;;;;;;;5079238;28;20413;-47
2023/09/03 07:38:10;;;;;;;247.17;108.07;;;;;;;;;;5074404;28;20419;-47
2023/09/03 07:40:39;;;;;;;249.33;113.20;;;;;;;;;;5074098;28;20561;-47
2023/09/03 07:43:05;;;;;;;248.63;110.47;;;;;;;;;;5074851;28;20433;-46
2023/09/03 07:45:31;;;;;;;245.17;106.43;;;;;;;;;;5074182;28;20416;-46
2023/09/03 07:47:58;;;;;;;247.87;113.33;;;;;;;;;;5074324;28;20415;-47
2023/09/03 07:50:24;;;;;;;243.80;106.50;;;;;;;;;;5073596;28;20428;-46
2023/09/03 07:52:50;;;;;;;248.80;110.03;;;;;;;;;;5070535;28;20439;-48
2023/09/03 07:55:16;;;;;;;250.77;111.63;;;;;;;;;;5074232;28;20443;-47
2023/09/03 07:57:42;;;;;;;244.70;108.73;;;;;;;;;;5074157;28;20909;-46
2023/09/03 08:00:08;;;;;;;246.07;109.83;;;;;;;;;;5073848;28;20461;-47
2023/09/03 08:02:34;;;;;;;247.37;108.00;;;;;;;;;;5073089;28;20480;-46
2023/09/03 08:05:00;;;;;;;244.57;105.27;;;;;;;;;;5073835;28;20406;-46
2023/09/03 08:07:26;;;;;;;244.33;107.60;;;;;;;;;;5073834;28;20421;-47
2023/09/03 08:09:52;;;;;;;251.97;112.63;;;;;;;;;;5073817;28;20488;-46
2023/09/03 08:12:18;;;;;;;242.73;104.30;;;;;;;;;;5073911;28;20511;-46
2023/09/03 08:14:47;;;;;;;244.87;109.90;;;;;;;;;;5073538;28;20430;-46
2023/09/03 08:17:13;;;;;;;240.40;102.07;;;;;;;;;;5073850;28;20470;-47
2023/09/03 08:19:39;;;;;;;241.73;104.87;;;;;;;;;;5073509;28;20448;-48
2023/09/03 08:22:05;;;;;;;240.70;105.10;;;;;;;;;;5072446;28;20414;-47
2023/09/03 08:24:31;;;;;;;241.37;102.30;;;;;;;;;;5080732;28;20431;-47
2023/09/03 08:26:58;;;;;;;241.43;104.77;;;;;;;;;;5073727;28;20434;-46
2023/09/03 08:29:24;;;;;;;243.60;106.33;;;;;;;;;;5073313;28;20424;-47
2023/09/03 08:31:50;;;;;;;242.10;107.07;;;;;;;;;;5073382;28;20404;-47
2023/09/03 08:34:16;;;;;;;240.23;100.97;;;;;;;;;;5073187;28;20520;-46
2023/09/03 08:36:42;;;;;;;237.57;101.37;;;;;;;;;;5073530;28;20422;-47
2023/09/03 08:39:09;;;;;;;240.40;102.70;;;;;;;;;;5073351;28;20419;-46
2023/09/03 08:41:36;;;;;;;242.40;105.97;;;;;;;;;;5073038;28;20479;-47
2023/09/03 08:44:04;;;;;;;240.97;105.40;;;;;;;;;;5073641;28;20429;-46
2023/09/03 08:46:34;;;;;;;239.20;103.63;;;;;;;;;;5073385;28;20471;-46
2023/09/03 08:49:00;;;;;;;242.57;104.40;;;;;;;;;;5073472;28;20461;-48
2023/09/03 08:51:27;;;;;;;242.17;107.77;;;;;;;;;;5072812;28;20457;-47
2023/09/03 08:53:55;;;;;;;243.17;107.63;;;;;;;;;;5072384;28;20427;-46
2023/09/03 08:56:21;;;;;;;243.93;107.97;;;;;;;;;;5072319;28;20506;-48
2023/09/03 08:58:47;;;;;;;241.43;107.23;;;;;;;;;;5073255;28;20499;-47
2023/09/03 09:01:14;;;;;;;242.50;107.97;;;;;;;;;;5072868;28;20451;-46
2023/09/03 09:03:41;;;;;;;242.03;108.17;;;;;;;;;;5072905;28;20511;-47
2023/09/03 09:06:08;;;;;;;243.23;109.97;;;;;;;;;;5073254;28;20407;-46
2023/09/03 09:08:34;;;;;;;248.37;111.47;;;;;;;;;;5073060;28;20396;-47
2023/09/03 09:11:08;;;;;;;242.77;107.37;;;;;;;;;;5072760;28;20497;-47
2023/09/03 09:13:35;;;;;;;244.73;109.67;;;;;;;;;;5072932;28;20473;-47
2023/09/03 09:16:01;;;;;;;246.37;111.77;;;;;;;;;;5072891;28;20420;-47
2023/09/03 09:18:27;;;;;;;244.90;107.70;;;;;;;;;;5072739;28;20404;-46
2023/09/03 09:20:54;;;;;;;246.00;110.23;;;;;;;;;;5072526;28;20545;-48
2023/09/03 09:23:24;;;;;;;247.07;110.93;;;;;;;;;;5072684;28;20764;-46
2023/09/03 09:25:50;;;;;;;245.27;109.83;;;;;;;;;;5072794;28;20424;-47
2023/09/03 09:28:16;;;;;;;244.97;106.53;;;;;;;;;;5072725;28;20408;-47
2023/09/03 09:30:55;;;;;;;248.07;109.67;;;;;;;;;;5072390;28;20409;-47
2023/09/03 09:33:21;;;;;;;243.80;102.97;;;;;;;;;;5072059;28;20416;-47
2023/09/03 09:35:48;;;;;;;254.47;117.23;;;;;;;;;;5072534;28;20942;-47
2023/09/03 09:38:14;;;;;;;254.80;120.40;;;;;;;;;;5072478;28;20493;-47
2023/09/03 09:40:40;;;;;;;251.87;113.53;;;;;;;;;;5072182;28;20454;-47
2023/09/03 09:43:10;;;;;;;250.57;114.83;;;;;;;;;;5072375;28;20842;-48
2023/09/03 09:45:56;;;;;;;257.10;122.83;;;;;;;;;;5072264;28;20407;-48
2023/09/03 09:48:22;;;;;;;256.43;120.37;;;;;;;;;;5072115;28;20478;-47
2023/09/03 09:50:49;;;;;;;252.33;122.90;;;;;;;;;;5072110;28;20853;-48
2023/09/03 09:53:23;;;;;;;253.23;120.40;;;;;;;;;;5071974;28;20429;-48
2023/09/03 09:56:03;;;;;;;251.27;117.07;;;;;;;;;;5072110;28;20487;-48
2023/09/03 09:58:38;;;;;;;250.67;115.93;;;;;;;;;;5072149;28;20413;-47
2023/09/03 10:01:04;;;;;;;252.27;120.37;;;;;;;;;;5069420;28;20463;-48
2023/09/03 10:03:46;;;;;;;250.10;117.27;;;;;;;;;;5077088;28;20427;-47
2023/09/03 10:06:13;;;;;;;251.17;119.97;;;;;;;;;;5070924;28;20952;-47
2023/09/03 10:08:39;;;;;;;251.13;124.53;;;;;;;;;;5086036;28;20418;-47
2023/09/03 10:11:05;;;;;;;249.97;120.33;;;;;;;;;;5074783;28;20416;-46
2023/09/03 10:13:32;;;;;;;251.97;123.80;;;;;;;;;;5057887;28;20447;-48
2023/09/03 10:16:02;;;;;;;245.40;114.73;;;;;;;;;;5051820;28;20475;-48
2023/09/03 10:18:28;;;;;;;246.53;115.40;;;;;;;;;;5051723;28;20420;-46
2023/09/03 10:20:56;;;;;;;243.00;113.07;;;;;;;;;;5081593;28;20877;-48
2023/09/03 10:23:22;;;;;;;245.23;117.97;;;;;;;;;;5071500;28;20856;-46
2023/09/03 10:25:48;;;;;;;241.17;119.73;;;;;;;;;;5071673;28;20916;-47
2023/09/03 10:28:16;;;;;;;242.07;118.07;;;;;;;;;;5071594;28;20408;-46
2023/09/03 10:30:44;;;;;;;247.73;126.40;;;;;;;;;;5077455;28;20407;-48
2023/09/03 10:33:11;;;;;;;241.57;116.87;;;;;;;;;;5077557;28;20961;-47
2023/09/03 10:35:37;;;;;;;246.87;125.53;;;;;;;;;;5071387;28;20420;-47
2023/09/03 10:38:03;;;;;;;246.83;127.43;;;;;;;;;;5071754;28;20420;-47
2023/09/03 10:40:30;;;;;;;241.93;116.63;;;;;;;;;;5071183;28;20967;-47
2023/09/03 10:43:18;;;;;;;243.83;117.97;;;;;;;;;;5071387;28;20412;-47
2023/09/03 10:46:03;;;;;;;247.07;125.33;;;;;;;;;;5074521;28;20396;-46
2023/09/03 10:48:29;;;;;;;244.03;117.70;;;;;;;;;;5075672;28;20403;-47
2023/09/03 10:50:55;;;;;;;241.70;118.77;;;;;;;;;;5075228;28;20424;-47
2023/09/03 10:53:35;;;;;;;242.87;121.77;;;;;;;;;;5093892;28;20516;-48
2023/09/03 10:56:11;;;;;;;237.93;110.07;;;;;;;;;;5083743;28;20403;-47
2023/09/03 10:58:53;;;;;;;240.20;116.30;;;;;;;;;;5079432;28;20411;-48
2023/09/03 11:01:32;;;;;;;241.93;120.13;;;;;;;;;;5075061;28;20609;-46
2023/09/03 11:03:59;;;;;;;234.10;114.10;;;;;;;;;;5075326;28;20450;-47
2023/09/03 11:06:26;;;;;;;236.67;116.30;;;;;;;;;;5075296;28;20412;-46
2023/09/03 11:09:05;;;;;;;241.37;115.97;;;;;;;;;;5075006;28;20444;-47
2023/09/03 11:11:33;;;;;;;240.30;115.73;;;;;;;;;;5074844;28;20416;-48
2023/09/03 11:14:00;;;;;;;235.43;109.37;;;;;;;;;;5075065;28;20511;-46
2023/09/03 11:16:32;;;;;;;240.77;113.73;;;;;;;;;;5074985;28;20435;-47
2023/09/03 11:19:00;;;;;;;238.20;117.23;;;;;;;;;;5074308;28;20479;-47
2023/09/03 11:21:26;;;;;;;235.37;109.47;;;;;;;;;;5073798;28;21105;-46
2023/09/03 11:24:04;;;;;;;243.03;120.13;;;;;;;;;;5074416;28;20485;-47
2023/09/03 11:26:31;;;;;;;237.37;110.67;;;;;;;;;;5074649;28;20489;-47
2023/09/03 11:28:57;;;;;;;238.33;116.87;;;;;;;;;;5074771;28;20412;-46
2023/09/03 11:31:24;;;;;;;238.33;111.97;;;;;;;;;;5074425;28;20420;-46
2023/09/03 11:33:50;;;;;;;235.73;108.53;;;;;;;;;;5074251;28;20428;-47
2023/09/03 11:36:21;;;;;;;236.33;108.80;;;;;;;;;;5074532;28;20505;-46
2023/09/03 11:38:47;;;;;;;234.83;108.87;;;;;;;;;;5074576;28;20483;-46
2023/09/03 11:41:15;;;;;;;236.37;111.33;;;;;;;;;;5074448;28;20546;-45
2023/09/03 11:43:41;;;;;;;236.03;109.43;;;;;;;;;;5072302;28;20428;-45
2023/09/03 11:46:14;;;;;;;236.53;112.70;;;;;;;;;;5074923;28;20496;-46
2023/09/03 11:48:40;;;;;;;237.27;115.10;;;;;;;;;;5066071;28;20404;-46
2023/09/03 11:51:06;;;;;;;235.17;110.70;;;;;;;;;;5074235;28;20920;-46
2023/09/03 11:53:42;;;;;;;234.83;108.63;;;;;;;;;;5074430;28;20432;-47
2023/09/03 11:56:13;;;;;;;235.60;109.73;;;;;;;;;;5074023;28;20958;-46
2023/09/03 11:58:39;;;;;;;234.70;110.00;;;;;;;;;;5074091;28;20400;-46
2023/09/03 12:01:06;;;;;;;240.03;114.13;;;;;;;;;;5074067;28;20977;-46
2023/09/03 12:03:32;;;;;;;236.67;120.30;;;;;;;;;;5074068;28;20424;-46
2023/09/03 12:05:58;;;;;;;238.53;114.83;;;;;;;;;;5072933;28;20884;-46
2023/09/03 12:08:25;;;;;;;239.10;117.63;;;;;;;;;;5074278;28;20397;-45
2023/09/03 12:10:51;;;;;;;239.20;113.80;;;;;;;;;;5073950;28;20404;-46
2023/09/03 12:13:34;;;;;;;239.30;119.33;;;;;;;;;;5074061;28;20427;-47
2023/09/03 12:16:03;;;;;;;236.87;113.70;;;;;;;;;;5073919;28;20435;-46
2023/09/03 12:18:29;;;;;;;236.17;110.90;;;;;;;;;;5074034;28;20462;-46
2023/09/03 12:20:55;;;;;;;235.93;109.47;;;;;;;;;;5073994;28;20963;-45
2023/09/03 12:23:21;;;;;;;234.87;108.40;;;;;;;;;;5073857;28;20421;-46
2023/09/03 12:25:47;;;;;;;237.10;108.87;;;;;;;;;;5073870;28;20459;-46
2023/09/03 12:28:13;;;;;;;236.30;111.60;;;;;;;;;;5073921;28;20459;-45
2023/09/03 12:30:58;;;;;;;238.00;109.10;;;;;;;;;;5073435;28;20902;-46
2023/09/03 12:33:33;;;;;;;238.60;113.03;;;;;;;;;;5073689;28;20421;-49
2023/09/03 12:36:06;;;;;;;239.67;112.40;;;;;;;;;;5073913;28;20402;-45
2023/09/03 12:38:47;;;;;;;235.30;105.27;;;;;;;;;;5073641;28;20776;-46
2023/09/03 12:41:13;;;;;;;236.53;108.70;;;;;;;;;;5066499;28;20460;-46
2023/09/03 12:43:39;;;;;;;239.57;115.17;;;;;;;;;;5056592;28;20433;-46
2023/09/03 12:46:05;;;;;;;235.97;109.30;;;;;;;;;;5053419;28;20404;-47
2023/09/03 12:48:31;;;;;;;236.17;109.37;;;;;;;;;;5053244;28;20601;-48
2023/09/03 12:50:57;;;;;;;238.40;108.87;;;;;;;;;;5052578;28;20421;-46
2023/09/03 12:53:23;;;;;;;233.07;106.33;;;;;;;;;;5089991;28;20428;-46
2023/09/03 12:55:49;;;;;;;237.47;114.40;;;;;;;;;;5093478;28;20403;-46
2023/09/03 12:58:14;;;;;;;234.00;108.07;;;;;;;;;;5093610;28;20400;-45
2023/09/03 13:00:40;;;;;;;238.50;116.40;;;;;;;;;;5093219;28;20443;-46
2023/09/03 13:03:06;;;;;;;232.80;105.87;;;;;;;;;;5093450;28;20506;-48
2023/09/03 13:05:32;;;;;;;235.47;110.47;;;;;;;;;;5093322;28;20399;-48
2023/09/03 13:07:58;;;;;;;238.43;113.23;;;;;;;;;;5092549;28;20626;-45
2023/09/03 13:10:24;;;;;;;237.33;111.77;;;;;;;;;;5093295;28;20439;-47
2023/09/03 13:12:50;;;;;;;237.87;113.00;;;;;;;;;;5093300;28;20422;-45
2023/09/03 13:15:16;;;;;;;235.50;112.30;;;;;;;;;;5093055;28;20419;-45
2023/09/03 13:17:42;;;;;;;235.37;111.67;;;;;;;;;;5093289;28;20395;-46
2023/09/03 13:20:08;;;;;;;236.67;117.40;;;;;;;;;;5092928;28;20538;-47
2023/09/03 13:22:34;;;;;;;236.53;113.07;;;;;;;;;;5092942;28;20485;-45
2023/09/03 13:25:00;;;;;;;238.63;113.17;;;;;;;;;;5092883;28;20454;-47
2023/09/03 13:27:26;;;;;;;237.43;111.63;;;;;;;;;;5093018;28;20400;-45
2023/09/03 13:29:52;;;;;;;244.63;117.63;;;;;;;;;;5091427;28;20395;-45
2023/09/03 13:32:18;;;;;;;238.93;116.80;;;;;;;;;;5093534;28;20410;-46
2023/09/03 13:34:46;;;;;;;243.93;120.10;;;;;;;;;;5092665;28;20428;-47
2023/09/03 13:37:12;;;;;;;242.57;114.10;;;;;;;;;;5092675;28;20438;-47
2023/09/03 13:39:38;;;;;;;243.23;114.57;;;;;;;;;;5092613;28;20408;-46
2023/09/03 13:42:04;;;;;;;240.50;115.10;;;;;;;;;;5092623;28;20498;-46
2023/09/03 13:44:30;;;;;;;242.10;120.07;;;;;;;;;;5092523;28;20427;-46
2023/09/03 13:46:56;;;;;;;243.77;116.07;;;;;;;;;;5092590;28;20439;-46
2023/09/03 13:49:22;;;;;;;244.17;122.40;;;;;;;;;;5092534;28;20491;-48
2023/09/03 13:51:48;;;;;;;241.30;116.33;;;;;;;;;;5086603;28;20920;-46
2023/09/03 13:54:14;;;;;;;241.47;114.83;;;;;;;;;;5071999;28;20463;-46
2023/09/03 13:56:40;;;;;;;242.80;118.77;;;;;;;;;;5072252;28;20403;-45
2023/09/03 13:59:06;;;;;;;242.60;120.07;;;;;;;;;;5072317;28;20813;-45
2023/09/03 14:01:33;;;;;;;245.70;121.63;;;;;;;;;;5071794;28;20521;-46